Aviation Digital Data Service (ADDS)

Output produced by METARs form (0641 UTC 27 March 2017)
found at http://www.aviationweather.gov/adds/metars/
 
TAF CYXX 270538Z 2706/2806 05008KT P6SM -RA SCT015 OVC030 
     TEMPO 2706/2710 5SM -RA BR BKN015 OVC030 
     FM271000 VRB03KT P6SM SCT020 OVC040 
     TEMPO 2710/2806 P6SM -SHRA OVC020 
     BECMG 2720/2722 20008KT RMK NXT FCST BY 271200Z
       
TAF CYAM 270138Z 2702/2714 09007KT 3SM -RA BR OVC007 
     TEMPO 2702/2704 3/4SM -DZ BR OVC004 
     FM270400 VRB02KT 1/2SM -DZ FG VV002 
     TEMPO 2704/2714 2SM -RA BR OVC007 
     PROB40 2704/2714 1/4SM -DZ FG VV001 RMK NXT FCST BY 270800Z
       
TAF AMD CYAY 270144Z 2702/2714 31015G25KT P6SM FEW025 
     TEMPO 2708/2714 BKN025 RMK FCST BASED ON AUTO OBS. NXT FCST BY 270800Z
       
TAF CYBC 270138Z 2702/2714 25008KT P6SM SCT160 
     BECMG 2704/2706 07012KT 
     FM270600 07012KT P6SM BKN120 
     FM271100 09015KT P6SM -SN SCT020 BKN070 
     FM271300 09015KT 11/2SM -SN SCT008 BKN020 RMK FCST BASED ON AUTO OBS. NXT FCST BY 270800Z
       
TAF CYBG 270530Z 2706/2806 10015KT P6SM SCT080 OVC120 
     FM271000 10018KT 6SM -SN BKN040 OVC060 
     BECMG 2711/2713 2SM -SN BLSN OVC020 
     FM271300 10018KT 2SM -SN BLSN OVC020 
     TEMPO 2713/2715 3/4SM -SN BLSN VV006 
     FM271500 10020KT 1SM -SN BLSN SCT008 OVC015 
     TEMPO 2715/2721 1/2SM SN BLSN VV004 
     FM272100 10018KT 2SM -SN BLSN OVC012 
     FM280200 10015KT 5SM -SN OVC020 RMK NXT FCST BY 271200Z
       
TAF CYBK 270538Z 2706/2718 34005KT P6SM FEW240 
     FM271500 VRB03KT P6SM FEW120 SCT240 
     BECMG 2716/2718 14007KT RMK NXT FCST BY 271200Z
       
TAF CYBR 270539Z 2706/2718 06005KT P6SM BKN080 
     TEMPO 2706/2708 P6SM -SHRA 
     FM270800 06005KT P6SM BKN080 
     TEMPO 2708/2714 2SM BR VV006 
     PROB30 2710/2714 1/2SM FZFG VV002 
     FM271400 05012KT 2SM BR VV006 
     TEMPO 2714/2718 P6SM NSW OVC010 RMK NXT FCST BY 271200Z
       
TAF AMD CYBX 270520Z 2705/2714 31015G25KT P6SM FEW020 RMK NXT FCST BY 270800Z
       
TAF CYCB 270638Z 2707/2719 VRB03KT 6SM -SN FEW004 BKN040 OVC080 
     TEMPO 2707/2709 3SM -SN SCT004 BKN020 OVC040 
     FM270900 06012KT 1SM -SN SCT004 OVC020 
     TEMPO 2709/2715 3SM -SN OVC040 
     FM271500 03012KT 3SM -SN BKN040 OVC080 
     TEMPO 2715/2719 6SM -SN SCT040 BKN080 RMK NXT FCST BY 271300Z
       
TAF CYCO 270638Z 2707/2719 27012KT 6SM IC FEW040 SCT080 
     TEMPO 2707/2708 P6SM NSW FEW080 
     FM270800 27007KT P6SM IC FEW080 RMK NXT FCST BY 271300Z
       
TAF CYCY 270638Z 2707/2719 27005KT P6SM SKC RMK FCST BASED ON AUTO OBS. NXT FCST BY 271300Z
       
TAF CYDB 270538Z 2706/2718 VRB03KT P6SM BKN170 
     FM271600 VRB03KT P6SM BKN060 
     TEMPO 2716/2718 P6SM -SN BKN040 RMK FCST BASED ON AUTO OBS. NXT FCST BY 271200Z
       
TAF CYDF 270139Z 2702/2714 25006KT P6SM FEW025 BKN050 
     TEMPO 2702/2706 5SM -SHSN BKN020 
     FM270600 27008KT WS005/31025KT P6SM SCT025 
     BECMG 2711/2713 27012G22KT RMK NXT FCST BY 270800Z
       
TAF CYDN 270539Z 2706/2718 02008KT P6SM SCT012 BKN080 
     TEMPO 2706/2708 6SM -SHRA BR BKN012 OVC080 
     FM270800 02008KT P6SM BKN012 
     TEMPO 2708/2718 2SM BR OVC006 
     PROB30 2708/2714 1/2SM FZFG VV002 RMK FCST BASED ON AUTO OBS. NXT FCST BY 271200Z
       
TAF CYEG 270541Z 2706/2806 12010KT P6SM SCT080 BKN200 
     PROB30 2709/2718 1SM BR BKN004 
     FM271800 12010KT P6SM SCT008 BKN060 OVC140 
     PROB30 2718/2722 BKN008 
     FM272200 12010KT P6SM SCT012 
     TEMPO 2722/2806 BKN012 RMK NXT FCST BY 270900Z
       
TAF CYEK 270538Z 2706/2718 01015KT P6SM SKC RMK FCST BASED ON AUTO OBS. NXT FCST BY 271200Z
       
TAF CYEV 270638Z 2707/2719 05005KT P6SM FEW250 RMK NXT FCST BY 271300Z
       
TAF CYFB 270538Z 2706/2806 31015KT P6SM SKC 
     BECMG 2707/2709 31008KT 
     BECMG 2710/2712 VRB03KT 
     FM272100 VRB03KT P6SM SCT040 BKN080 
     TEMPO 2721/2806 5SM -SN BKN040 OVC080 RMK NXT FCST BY 271200Z
       
TAF CYFC 270540Z 2706/2718 VRB03KT P6SM SCT160 
     FM270900 VRB03KT P6SM BKN100 
     FM271100 VRB03KT P6SM -SN OVC060 
     FM271600 08010KT 2SM -SN BKN020 OVC040 RMK FCST BASED ON AUTO OBS. NXT FCST BY 271200Z
       
TAF CYFS 270538Z 2706/2718 33005KT P6SM FEW120 
     BECMG 2709/2711 VRB03KT RMK NXT FCST BY 271200Z
       
TAF CYGL 270538Z 2706/2806 12012KT P6SM OVC090 
     FM270800 13015KT P6SM SCT020 OVC060 
     TEMPO 2708/2714 4SM -SN OVC015 
     FM271400 14012G22KT 2SM -SN OVC015 
     TEMPO 2714/2724 6SM -SN 
     BECMG 2720/2722 15007KT RMK NXT FCST BY 271200Z
       
TAF CYGP 270138Z 2702/2714 28008KT P6SM SKC 
     FM270600 VRB03KT P6SM SCT160 
     FM271200 29005KT P6SM BKN110 RMK NXT FCST BY 270800Z
       
TAF CYGQ 270138Z 2702/2714 VRB03KT P6SM SCT020 OVC040 
     TEMPO 2702/2714 BKN020 OVC040 
     PROB30 2704/2714 P6SM -FZRA RMK NXT FCST BY 270800Z
       
TAF CYGV 270138Z 2702/2714 29008KT P6SM SCT240 
     BECMG 2710/2712 33006KT RMK FCST BASED ON AUTO OBS. NXT FCST BY 270800Z
       
TAF CYGW 270538Z 2706/2718 10012G22KT P6SM BKN080 
     FM271700 16012G22KT P6SM SCT020 OVC070 RMK FCST BASED ON AUTO OBS. NXT FCST BY 271200Z
       
TAF CYGX 270638Z 2707/2719 34008KT P6SM OVC025 
     TEMPO 2707/2719 P6SM -SN OVC020 RMK NXT FCST BY 271300Z
       
TAF CYHD 270138Z 2702/2714 VRB03KT P6SM SCT100 
     PROB30 2709/2714 1/2SM FG FZFG RMK FCST BASED ON AUTO OBS. NXT FCST BY 270800Z
       
TAF CYHK 270538Z 2706/2718 26007KT P6SM FEW240 
     TEMPO 2706/2712 4SM IC HZ 
     BECMG 2709/2711 21010KT 
     FM271200 18010KT P6SM SCT080 BKN120 
     FM271500 16015G25KT 6SM -SN BKN030 OVC080 
     TEMPO 2715/2718 2SM -SN BLSN BKN015 OVC030 RMK FCST BASED ON AUTO OBS. NXT FCST BY 271200Z
       
TAF AMD CYHM 270612Z 2706/2806 10005KT 1SM -RA BR BKN002 OVC005 
     TEMPO 2706/2709 P6SM NSW FEW006 OVC015 
     FM270900 16006KT 1SM BR OVC003 
     TEMPO 2709/2711 5SM BR OVC006 
     PROB30 2709/2711 1/4SM -DZ FG VV001 
     FM271100 21008KT 5SM BR OVC003 
     TEMPO 2711/2714 P6SM NSW OVC010 
     FM271400 23012KT P6SM OVC012 
     FM271700 23012KT P6SM OVC020 
     FM272300 24008KT P6SM BKN015 OVC030 RMK NXT FCST BY 271200Z
       
TAF CYHU 270541Z 2706/2806 10007KT P6SM OVC030 
     TEMPO 2706/2709 5SM -RA BR OVC015 
     PROB30 2706/2709 2SM BR OVC006 
     FM270900 17015KT 3SM -RA BR BKN006 OVC012 
     FM271200 17015KT 3SM -RA BR BKN006 OVC012 
     FM272300 16006KT 21/2SM -SHRA BR OVC009 
     PROB30 2723/2806 1/2SM FG VV002 RMK FCST BASED ON AUTO OBS. NXT FCST BY 271200Z
       
TAF CYHY 270538Z 2706/2718 30007KT P6SM OVC030 
     TEMPO 2706/2712 6SM -SN OVC020 
     BECMG 2707/2709 VRB03KT 
     FM271200 VRB03KT P6SM OVC040 
     TEMPO 2712/2718 P6SM -SN OVC025 RMK NXT FCST BY 271200Z
       
TAF CYHZ 270540Z 2706/2806 26008KT P6SM FEW240 
     FM271100 06006KT P6SM BKN120 
     FM271800 16010KT P6SM -SHSN FEW020 OVC070 
     FM272100 15010KT 2SM -SN SCT020 OVC040 
     FM280000 12010KT 11/2SM -SN BKN020 OVC040 
     PROB30 2800/2804 11/2SM -PLSN OVC020 
     FM280400 12012G22KT 3/4SM -SN VV010 
     PROB30 2804/2806 1/2SM SNPL VV008 RMK NXT FCST BY 270900Z
       
TAF CYIO 270638Z 2707/2719 17005KT P6SM FEW030 RMK FCST BASED ON AUTO OBS. NXT FCST BY 271300Z
       
TAF CYIV 270638Z 2707/2719 34005KT P6SM BKN025 
     TEMPO 2707/2719 BKN015 RMK NXT FCST BY 271300Z
       
TAF CYJT 270538Z 2706/2806 32015G25KT P6SM -SHSN BKN030 
     TEMPO 2706/2709 3SM -SHSN BKN020 
     FM270900 32012G22KT P6SM BKN020 
     TEMPO 2709/2718 SCT020 
     BECMG 2713/2715 31018G28KT 
     FM271800 30015G25KT P6SM SCT020 
     TEMPO 2718/2806 BKN020 
     BECMG 2722/2724 33010KT RMK NXT FCST BY 271200Z
       
TAF CYKA 270038Z 2701/2713 08010KT P6SM SCT050 BKN080 OVC120 
     TEMPO 2701/2703 P6SM -SHRA BKN050 OVC080 
     FM270300 09008KT P6SM FEW050 BKN100 RMK NXT FCST BY 270700Z
       
TAF CYKL 270139Z 2702/2714 34005KT P6SM SKC 
     BECMG 2704/2706 VRB03KT RMK FCST BASED ON AUTO OBS. NXT FCST BY 270800Z
       
TAF CYKZ 270538Z 2706/2718 11006KT 2SM BR OVC002 
     TEMPO 2706/2708 3SM -SHRA BR BKN008 OVC020 
     FM270800 15006KT 2SM -SHRA BR BKN005 OVC010 
     TEMPO 2708/2712 6SM BR SCT005 OVC012 
     PROB40 2708/2711 1SM -SHRA BR OVC003 
     FM271200 21008KT P6SM OVC012 
     TEMPO 2712/2714 OVC008 
     FM271500 24010KT P6SM OVC015 RMK NXT FCST BY 271200Z
       
TAF CYLL 270541Z 2706/2718 12010KT P6SM FEW006 
     TEMPO 2706/2709 4SM BR SCT006 
     PROB40 2706/2709 1SM BR 
     FM270900 12010KT 11/2SM BR OVC006 
     PROB40 2709/2717 1/2SM FZFG VV002 
     FM271700 12010KT P6SM SCT008 
     TEMPO 2717/2718 2SM BR BKN008 RMK FCST BASED ON AUTO OBS. NXT FCST BY 271200Z
       
TAF CYLW 270038Z 2701/2713 20006KT P6SM FEW025 BKN060 
     TEMPO 2701/2713 P6SM -SHRA BKN025 OVC060 RMK FCST BASED ON AUTO OBS. NXT FCST BY 270700Z
       
TAF CYMA 270538Z 2706/2718 36008KT P6SM FEW050 
     FM271200 02007KT P6SM SCT050 
     TEMPO 2712/2718 P6SM -SN BKN050 RMK NXT FCST BY 271200Z
       
TAF CYMJ 261915Z 2619/2707 25012G22KT P6SM FEW080 BKN260 
     BECMG 2622/2624 29008KT 
     BECMG 2701/2703 VRB03KT RMK NXT FCST BY 270000Z
       
TAF CYMM 270038Z 2701/2713 VRB03KT P6SM FEW020 SCT250 
     FM270400 10005KT P6SM SKC 
     PROB40 2704/2708 1SM BR 
     FM270800 VRB03KT 1SM BR OVC006 
     PROB40 2708/2713 1/2SM FZFG VV002 RMK FCST BASED ON AUTO OBS. NXT FCST BY 270700Z
       
TAF CYMX 270541Z 2706/2806 06005KT P6SM OVC025 
     TEMPO 2706/2712 2SM -FZDZ -FZRA BR OVC005 
     FM271200 12007KT 1SM -RA BR OVC003 
     FM272200 05006KT 11/2SM -SHRA BR OVC003 
     PROB30 2722/2806 1/2SM FG VV002 RMK NXT FCST BY 271200Z
       
TAF CYNA 270138Z 2702/2714 32008KT P6SM SKC RMK FCST BASED ON AUTO OBS. NXT FCST BY 270800Z
       
TAF CYNE 270638Z 2707/2719 VRB03KT P6SM BKN030 
     TEMPO 2707/2716 BKN015 
     FM271600 26005KT P6SM SCT015 
     TEMPO 2716/2719 BKN015 RMK FCST BASED ON AUTO OBS. NXT FCST BY 271300Z
       
TAF CYOD 270530Z 2706/2806 12005KT P6SM SKC 
     FM270800 09005KT P6SM SCT005 BKN010 
     TEMPO 2708/2711 FEW005 SCT010 
     PROB30 2709/2711 1SM BR BKN005 OVC008 
     FM271100 10005KT 1SM BR OVC005 
     TEMPO 2711/2714 3SM BR OVC010 
     PROB30 2711/2713 1/2SM FZFG VV002 
     FM271400 11008KT P6SM OVC010 
     TEMPO 2714/2718 4SM BR OVC008 
     FM271800 12010KT P6SM BKN010 OVC100 
     TEMPO 2721/2803 P6SM -SHRA OVC010 
     FM280300 13005KT 3SM -RASN BR OVC008 RMK NXT FCST BY 271200Z
       
TAF CYOJ 270038Z 2701/2713 VRB03KT P6SM OVC025 
     TEMPO 2701/2705 OVC015 
     FM270500 34005KT P6SM FEW020 SCT060 
     FM271000 35005KT P6SM FEW050 
     PROB30 2710/2713 1SM BR RMK NXT FCST BY 270700Z
       
TAF AMD CYOW 270609Z 2706/2806 08008G18KT 11/2SM -FZDZ -FZRA BR OVC003 
     TEMPO 2706/2709 6SM BR OVC025 
     FM270900 08010KT 1SM -RA BR OVC005 
     PROB30 2709/2720 OVC003 
     FM272000 08007KT 2SM -SHRA BR OVC005 
     PROB30 2720/2724 1SM BR OVC003 
     FM280000 09003KT 11/2SM -SHRA BR OVC003 
     PROB30 2800/2806 1/2SM FG VV002 RMK NXT FCST BY 270900Z
       
TAF CYPA 270638Z 2707/2719 06006KT P6SM SCT250 
     PROB30 2708/2712 1SM BR BKN006 
     BECMG 2712/2714 08012KT RMK NXT FCST BY 271300Z
       
TAF CYPE 270038Z 2701/2713 VRB03KT P6SM FEW100 SCT210 
     FM270800 03005KT P6SM BKN050 OVC100 
     PROB30 2708/2713 P6SM -FZRA RMK NXT FCST BY 270700Z
       
TAF CYPH 270538Z 2706/2718 11015KT P6SM OVC070 
     BECMG 2715/2717 10015KT RMK FCST BASED ON AUTO OBS. NXT FCST BY 271200Z
       
TAF CYPR 270038Z 2701/2713 08010KT P6SM BKN040 
     TEMPO 2701/2713 P6SM -SHRA RMK FCST BASED ON AUTO OBS. NXT FCST BY 270700Z
       
TAF CYPX 270538Z 2706/2718 10015KT P6SM BKN150 
     BECMG 2712/2714 08015G25KT 
     FM271400 08015G25KT P6SM BKN150 
     TEMPO 2714/2718 5SM BLSN RMK FCST BASED ON AUTO OBS. NXT FCST BY 271200Z
       
TAF AMD CYQB 270605Z 2706/2806 07009KT P6SM -SN OVC025 
     TEMPO 2706/2710 11/2SM -SNPL VV012 
     PROB30 2707/2710 5SM -FZRA BR 
     FM271000 07015KT 3SM -SN OVC012 
     PROB30 2710/2715 2SM -FZDZ BR OVC006 
     FM271500 08012KT 11/2SM -SN OVC006 
     FM272300 07010KT WS015/12020KT 1SM -SNPL BKN010 OVC020 
     FM280300 07010KT WS015/12020KT P6SM -PL OVC015 
     PROB30 2803/2806 4SM -FZRA BR RMK NXT FCST BY 271200Z
       
TAF CYQD 270638Z 2707/2719 VRB03KT P6SM SKC 
     FM271200 VRB03KT P6SM FEW015 RMK NXT FCST BY 271300Z
       
TAF CYQF 270541Z 2706/2718 15006KT P6SM SCT120 BKN200 
     FM271400 VRB03KT P6SM FEW120 RMK NXT FCST BY 271200Z
       
TAF CYQG 270538Z 2706/2806 21008KT P6SM SCT012 OVC060 
     TEMPO 2706/2714 4SM BR OVC006 
     FM271400 23012KT P6SM BKN015 OVC030 
     FM272100 21010KT P6SM BKN020 
     BECMG 2723/2801 VRB03KT RMK NXT FCST BY 271200Z
       
TAF AMD CYQH 270623Z 2706/2718 VRB03KT P6SM SCT050 
     TEMPO 2706/2714 BKN050 
     BECMG 2712/2714 11007KT 
     FM271400 11007KT P6SM BKN080 
     TEMPO 2714/2718 6SM -SN OVC040 RMK NXT FCST BY 271200Z
       
TAF CYQI 270540Z 2706/2718 08005KT P6SM OVC120 
     FM271000 09006KT P6SM OVC060 
     TEMPO 2710/2712 P6SM -SHSN 
     FM271700 11015KT P6SM -SNPL OVC040 RMK NXT FCST BY 271200Z
       
TAF CYQK 270138Z 2702/2714 VRB03KT P6SM SCT130 
     PROB40 2708/2714 1/2SM FG FZFG OVC002 RMK NXT FCST BY 270800Z
       
TAF CYQL 270541Z 2706/2718 20008KT P6SM SCT060 BKN120 OVC200 
     FM271400 24012KT P6SM SCT120 
     BECMG 2714/2716 26020KT RMK FCST BASED ON AUTO OBS. NXT FCST BY 271200Z
       
TAF CYQM 270540Z 2706/2806 28005KT P6SM SCT160 
     FM270800 03005KT P6SM BKN120 
     FM271500 10008KT 6SM -SHSN OVC080 
     FM272000 10008KT 2SM -SN SCT020 OVC040 
     FM280000 08010KT 1SM -SN OVC008 RMK NXT FCST BY 271200Z
       
TAF CYQQ 270539Z 2706/2806 14012G22KT P6SM FEW015 BKN030 
     TEMPO 2706/2724 P6SM -SHRA BKN015 OVC030 
     FM280000 13012G22KT P6SM SCT030 BKN100 
     TEMPO 2800/2806 P6SM -RA BKN030 OVC100 RMK NXT FCST BY 271200Z
       
TAF AMD CYQR 270559Z 2706/2806 35006KT 2SM BR VV015 
     TEMPO 2706/2715 1/2SM FZFG VV005 
     FM271500 08008KT P6SM SCT020 
     FM272000 10015KT P6SM BKN100 OVC200 
     TEMPO 2720/2806 P6SM -SHRA RMK NXT FCST BY 271200Z
       
TAF CYQT 270138Z 2702/2714 09005KT 3SM -DZ BR BKN005 OVC025 
     TEMPO 2702/2706 6SM BR SCT005 OVC025 
     PROB30 2702/2706 2SM -FZDZ BR 
     FM270600 28004KT P6SM SCT004 BKN120 
     TEMPO 2706/2710 2SM BR BKN004 
     PROB40 2706/2710 1/2SM FZFG OVC002 
     FM271000 28004KT P6SM BKN130 RMK NXT FCST BY 270800Z
       
TAF CYQU 270038Z 2701/2713 03008KT P6SM SCT100 BKN260 
     FM270500 06012KT P6SM BKN060 OVC140 
     BECMG 2708/2710 VRB03KT RMK NXT FCST BY 270700Z
       
TAF CYQW 270539Z 2706/2718 11012KT P6SM OVC025 
     TEMPO 2706/2708 3SM BR OVC012 
     FM270800 10012KT 1SM BR OVC003 
     TEMPO 2708/2714 3SM BR OVC012 
     FM271400 11015KT 3SM BR OVC006 
     TEMPO 2714/2718 P6SM NSW OVC012 RMK FCST BASED ON AUTO OBS. NXT FCST BY 271200Z
       
TAF AMD CYQX 270547Z 2706/2806 31015G25KT P6SM SCT025 
     TEMPO 2706/2712 BKN025 
     BECMG 2710/2712 31020G35KT 
     FM271200 31020G35KT P6SM BKN020 
     TEMPO 2712/2724 BKN030 
     BECMG 2713/2715 32025G40KT 
     FM280000 32018G28KT P6SM BKN020 
     TEMPO 2800/2806 BKN030 RMK NXT FCST BY 271200Z
       
TAF CYQY 270540Z 2706/2718 29010KT P6SM SCT030 
     FM270900 33010KT P6SM FEW030 SCT160 
     FM271400 34012KT P6SM FEW020 BKN120 
     BECMG 2716/2718 01010KT RMK NXT FCST BY 271200Z
       
TAF CYRB 270538Z 2706/2806 12010KT P6SM IC SKC 
     FM271200 12012KT P6SM SCT020 
     TEMPO 2712/2724 5SM -SN BKN020 
     FM280000 12012KT P6SM -SN SCT020 BKN080 
     TEMPO 2800/2806 2SM -SN SCT006 BKN020 OVC080 RMK NXT FCST BY 271200Z
       
TAF AMD CYRQ 270326Z 2703/2714 06011KT P6SM -SN OVC050 
     TEMPO 2703/2708 5SM -FZRA -SNPL BR OVC020 
     FM270800 08008KT WS015/16020KT 3SM -SNPL OVC030 
     PROB40 2708/2712 1SM -SN -FZRA VV015 
     FM271200 08008KT WS015/16020KT 1SM -PL BR OVC015 
     PROB40 2712/2714 3/4SM -SN -FZRA VV008 RMK FCST BASED ON AUTO OBS. NXT FCST BY 270800Z
       
TAF CYRT 270538Z 2706/2718 36010KT P6SM SKC 
     BECMG 2710/2712 35007KT RMK NXT FCST BY 271200Z
       
TAF AMD CYSB 270613Z 2706/2714 08007KT 1/2SM FZFG VV001 
     TEMPO 2706/2710 1SM -FZDZ BR OVC003 
     FM271000 12005KT 1/2SM FG VV002 
     TEMPO 2710/2714 2SM -RA BR OVC004 
     PROB40 2710/2714 1/4SM FG VV001 RMK NXT FCST BY 270800Z
       
TAF CYSF 270541Z 2706/2718 VRB03KT P6SM SKC 
     FM270900 10008KT P6SM SCT040 BKN080 
     TEMPO 2709/2715 4SM -SN BKN040 OVC080 
     FM271500 10008KT P6SM OVC025 
     TEMPO 2715/2718 6SM -SN OVC015 
     PROB30 2715/2718 4SM -FZDZ BR RMK FCST BASED ON AUTO OBS. NXT FCST BY 271200Z
       
TAF CYSJ 270540Z 2706/2718 VRB03KT P6SM BKN170 
     FM271000 VRB03KT P6SM -SHSN OVC080 
     TEMPO 2710/2712 3SM -SN OVC060 
     FM271200 08010KT 3SM -SN OVC060 
     FM271500 11012KT 11/2SM -SN OVC015 RMK NXT FCST BY 271200Z
       
TAF CYSM 270541Z 2706/2718 VRB03KT P6SM OVC025 
     TEMPO 2706/2718 6SM -SN OVC015 
     PROB30 2706/2718 2SM -FZDZ BR RMK NXT FCST BY 271200Z
       
TAF CYTE 270638Z 2707/2719 VRB03KT 3SM -SN BKN015 
     TEMPO 2707/2719 1SM -SN VV005 RMK FCST BASED ON AUTO OBS. NXT FCST BY 271300Z
       
TAF CYTH 270638Z 2707/2719 VRB03KT P6SM OVC025 
     TEMPO 2707/2717 P6SM -SN OVC020 
     FM271700 01006KT P6SM SCT030 RMK NXT FCST BY 271300Z
       
TAF CYTL 270138Z 2702/2714 30008KT P6SM OVC030 
     TEMPO 2702/2714 P6SM -SN OVC020 RMK FCST BASED ON AUTO OBS. NXT FCST BY 270800Z
       
TAF AMD CYTR 270609Z 2706/2806 15010KT 2SM -RA BR OVC005 
     TEMPO 2706/2708 6SM -RA BR SCT008 OVC025 
     FM270800 15008KT 2SM -RA BR OVC005 
     TEMPO 2708/2714 6SM -RA BR OVC008 
     FM271400 17005KT 3SM -RA BR SCT006 OVC010 
     TEMPO 2714/2720 1SM -RA -DZ BR OVC004 
     BECMG 2717/2719 24010KT 
     FM272000 24012KT P6SM OVC015 
     TEMPO 2720/2724 5SM -DZ BR OVC010 
     FM280000 24008KT 2SM -DZ BR OVC006 RMK NXT FCST BY 271200Z
       
TAF AMD CYTS 270513Z 2705/2714 15007KT 6SM -FZRA BR OVC010 
     TEMPO 2705/2708 2SM -DZ BR OVC005 
     FM270800 VRB03KT 1SM -FZDZ BR OVC003 
     TEMPO 2708/2714 4SM -FZRA BR OVC006 RMK NXT FCST BY 270800Z
       
TAF AMD CYTZ 270540Z 2705/2802 07010KT P6SM FEW005 OVC025 
     TEMPO 2705/2708 4SM -SHRA BR BKN004 OVC020 
     FM270800 13008KT 2SM -SHRA BR BKN003 OVC010 
     TEMPO 2708/2712 6SM BR SCT005 OVC012 
     FM271200 18008KT P6SM OVC012 
     TEMPO 2712/2714 OVC008 
     FM271500 20010KT P6SM OVC015 
     FM271900 22012KT P6SM BKN020 
     BECMG 2722/2724 25008KT RMK FCST BASED ON AUTO OBS. NXT FCST BY 270800Z
       
TAF CYUL 270541Z 2706/2806 08009KT P6SM OVC025 
     TEMPO 2706/2709 5SM -RA -DZ BR OVC015 
     PROB30 2706/2709 2SM BR OVC006 
     FM270900 13015KT 3SM -RA BR BKN006 OVC012 
     FM272300 06002KT 2SM -SHRA BR OVC006 
     PROB30 2723/2806 1SM BR OVC003 RMK NXT FCST BY 270900Z
       
TAF CYUX 261839Z 2619/2707 17012KT P6SM FEW012 
     TEMPO 2619/2707 BKN012 RMK NXT FCST BY 270100Z
       
TAF CYUY 270538Z 2706/2718 16010KT 4SM -FZRA BR OVC005 
     TEMPO 2706/2710 6SM -FZRA BR OVC010 
     FM271000 15010KT 1SM -FZRA BR OVC005 
     TEMPO 2710/2712 4SM -RA BR OVC010 
     FM271200 15005KT 3/4SM -DZ BR VV002 
     TEMPO 2712/2718 2SM -RA BR OVC006 RMK NXT FCST BY 271200Z
       
TAF CYVC 270638Z 2707/2719 VRB03KT P6SM FEW050 
     PROB30 2709/2712 1SM BR RMK NXT FCST BY 271300Z
       
TAF CYVM 270638Z 2707/2719 20012KT P6SM SKC 
     BECMG 2708/2710 20007KT RMK FCST BASED ON AUTO OBS. NXT FCST BY 271300Z
       
TAF CYVO 270538Z 2706/2718 14015KT 6SM -FZRA BR OVC012 
     TEMPO 2706/2712 3SM -SN OVC007 
     FM271200 15007KT 3/4SM -DZ BR OVC003 
     TEMPO 2712/2718 2SM -RA BR OVC006 RMK FCST BASED ON AUTO OBS. NXT FCST BY 271200Z
       
TAF CYVP 270538Z 2706/2718 23005KT P6SM FEW220 
     BECMG 2706/2708 18005KT 
     FM271700 13007KT P6SM BKN220 RMK NXT FCST BY 271200Z
       
TAF CYVQ 270538Z 2706/2718 VRB03KT P6SM FEW260 RMK NXT FCST BY 271200Z
       
TAF CYVR 270538Z 2706/2812 07008KT P6SM SCT012 OVC025 
     TEMPO 2706/2720 4SM -SHRA BR FEW008 BKN012 OVC020 
     FM272000 11010KT P6SM -SHRA SCT012 BKN025 
     FM280200 13008KT P6SM SCT020 BKN060 BKN200 
     FM280900 12008KT P6SM -RA SCT015 BKN030 OVC050 RMK NXT FCST BY 270900Z
       
TAF CYWA 270530Z 2706/2718 13008KT 2SM -FZRA -FZDZ BR OVC006 
     TEMPO 2706/2712 6SM BR OVC010 
     FM271200 13005KT 1SM -RA BR OVC004 
     TEMPO 2712/2718 4SM -DZ BR OVC008 
     PROB40 2712/2716 3/4SM -RA BR OVC003 RMK FCST BASED ON AUTO OBS. NXT FCST BY 271200Z
       
TAF CYWG 270539Z 2706/2806 VRB03KT P6SM FEW100 
     BECMG 2710/2712 BKN080 
     FM271200 03006KT P6SM SCT030 OVC080 
     TEMPO 2712/2715 P6SM -FZRA BKN030 OVC080 
     FM271500 01008KT P6SM SCT012 OVC030 
     TEMPO 2715/2720 6SM -SHRA BR SCT008 OVC012 
     FM272000 02010KT P6SM SCT008 OVC012 
     FM280000 02010KT P6SM BKN030 RMK NXT FCST BY 271200Z
       
TAF CYWK 270139Z 2702/2714 33008KT P6SM SKC 
     BECMG 2704/2706 VRB03KT RMK NXT FCST BY 270800Z
       
TAF CYWL 270038Z 2701/2713 12015G25KT P6SM SCT020 BKN060 OVC120 
     TEMPO 2701/2705 5SM -SN BKN020 
     FM270500 12010KT P6SM SCT060 BKN120 
     BECMG 2708/2710 12005KT RMK NXT FCST BY 270700Z
       
TAF AMD CYXC 270555Z 2705/2713 VRB03KT P6SM SCT015 BKN040 OVC060 
     TEMPO 2705/2713 3SM -SHRASN BR BKN015 OVC040 RMK NXT FCST BY 270700Z
       
TAF CYXE 270539Z 2706/2806 08008KT 2SM BR OVC004 
     TEMPO 2706/2715 6SM BR OVC008 
     FM271500 09012KT P6SM OVC008 
     TEMPO 2715/2720 BKN012 
     FM272000 09012KT P6SM BKN012 OVC100 RMK NXT FCST BY 271200Z
       
TAF CYXH 270541Z 2706/2718 VRB03KT P6SM FEW080 BKN200 
     FM270900 18006KT P6SM BKN080 OVC200 RMK FCST BASED ON AUTO OBS. NXT FCST BY 271200Z
       
TAF CYXJ 270638Z 2707/2719 VRB03KT P6SM BKN100 
     TEMPO 2707/2710 P6SM -SN OVC070 
     BECMG 2707/2709 32005KT 
     FM271000 32007KT P6SM BKN060 
     TEMPO 2710/2719 3SM -SN OVC030 
     BECMG 2717/2719 10007KT RMK NXT FCST BY 271300Z
       
TAF CYXL 270138Z 2702/2714 VRB03KT P6SM SCT110 
     PROB30 2709/2714 1/2SM FZFG RMK NXT FCST BY 270800Z
       
TAF CYXS 270038Z 2701/2713 19012KT P6SM BKN050 
     TEMPO 2701/2713 P6SM -SHRA BKN030 
     BECMG 2705/2707 18007KT RMK FCST BASED ON AUTO OBS. NXT FCST BY 270700Z
       
TAF CYXT 270638Z 2707/2719 VRB03KT P6SM BKN070 
     TEMPO 2707/2711 18007KT P6SM -SHRA OVC050 
     FM271100 VRB03KT P6SM SCT020 BKN050 
     TEMPO 2711/2719 18007KT 3SM -RASN BR BKN020 OVC050 
     BECMG 2713/2715 01007KT RMK NXT FCST BY 271300Z
       
TAF CYXU 270538Z 2706/2806 16006KT 1SM BR OVC002 
     TEMPO 2706/2715 3SM -SHRA BR BKN006 OVC015 
     BECMG 2711/2713 23010KT 
     FM271500 24010KT 3SM BR OVC005 
     TEMPO 2715/2719 P6SM NSW OVC010 
     FM271900 25012KT P6SM OVC012 
     BECMG 2722/2724 26006KT 
     FM280300 VRB03KT P6SM BKN020 RMK NXT FCST BY 271200Z
       
TAF CYXX 270538Z 2706/2806 05008KT P6SM -RA SCT015 OVC030 
     TEMPO 2706/2710 5SM -RA BR BKN015 OVC030 
     FM271000 VRB03KT P6SM SCT020 OVC040 
     TEMPO 2710/2806 P6SM -SHRA OVC020 
     BECMG 2720/2722 20008KT RMK NXT FCST BY 271200Z
       
TAF CYXY 270538Z 2706/2718 28005KT P6SM FEW060 
     FM271000 VRB03KT P6SM SCT060 BKN100 
     TEMPO 2710/2718 P6SM -SN BKN060 OVC100 
     BECMG 2715/2717 17008KT RMK NXT FCST BY 271200Z
       
TAF AMD CYYB 270434Z 2704/2714 10012KT 6SM BR OVC006 
     TEMPO 2704/2707 2SM -FZDZ -SN BR OVC003 
     FM270700 09007KT 1/2SM -DZ FG VV002 
     TEMPO 2707/2714 2SM -RA BR OVC004 
     PROB40 2707/2714 1/4SM FG VV001 RMK NXT FCST BY 270800Z
       
TAF CYYC 270541Z 2706/2806 VRB03KT P6SM FEW120 BKN200 
     FM271400 VRB03KT P6SM FEW060 
     BECMG 2716/2718 32008KT 
     FM272200 34008KT P6SM -SHRA BKN060 
     FM280400 VRB03KT P6SM SKC RMK NXT FCST BY 270900Z
       
TAF CYYE 270638Z 2707/2719 VRB03KT P6SM SCT080 
     TEMPO 2707/2714 BKN080 
     PROB30 2710/2714 1SM BR 
     FM271400 VRB03KT P6SM BKN080 
     TEMPO 2714/2717 3SM -SN SCT015 OVC040 
     FM271700 VRB03KT P6SM -SN OVC040 
     TEMPO 2717/2719 2SM -SN OVC015 RMK NXT FCST BY 271300Z
       
TAF CYYF 270038Z 2701/2713 18012KT P6SM FEW030 BKN060 
     TEMPO 2701/2706 P6SM -SHRA BKN030 OVC060 
     FM270600 16006KT P6SM BKN040 OVC080 
     TEMPO 2706/2713 P6SM -SHRA SCT020 OVC040 RMK NXT FCST BY 270700Z
       
TAF CYYG 270540Z 2706/2718 VRB03KT P6SM FEW230 
     FM271100 VRB03KT P6SM BKN120 
     BECMG 2713/2715 20006KT 
     FM271600 20006KT P6SM SCT020 BKN090 RMK NXT FCST BY 271200Z
       
TAF CYYH 270538Z 2706/2718 16007KT P6SM IC FEW100 
     FM271500 16010KT P6SM SCT080 BKN120 RMK NXT FCST BY 271200Z
       
TAF CYYJ 270538Z 2706/2806 14008KT P6SM SCT012 BKN050 BKN140 
     TEMPO 2706/2802 5SM -SHRA BR FEW008 BKN012 OVC030 
     FM280200 23010G20KT P6SM FEW030 SCT050 BKN200 RMK NXT FCST BY 271200Z
       
TAF CYYL 270638Z 2707/2719 VRB03KT P6SM SKC 
     PROB30 2707/2719 2SM BR RMK FCST BASED ON AUTO OBS. NXT FCST BY 271300Z
       
TAF CYYN 270539Z 2706/2718 10008KT P6SM FEW020 SCT100 
     FM271400 12012KT P6SM BKN100 
     TEMPO 2714/2718 P6SM -SHRA RMK FCST BASED ON AUTO OBS. NXT FCST BY 271200Z
       
TAF CYYQ 270539Z 2706/2806 36012KT P6SM SCT020 BKN040 
     TEMPO 2706/2712 5SM -SN BKN020 OVC040 
     BECMG 2708/2710 36015G25KT 
     FM271200 36015G25KT P6SM BKN020 BKN220 
     TEMPO 2712/2724 SCT020 SCT220 
     FM280000 01012KT P6SM SCT020 
     BECMG 2804/2806 VRB03KT RMK NXT FCST BY 271200Z
       
TAF CYYR 270530Z 2706/2806 25008KT P6SM SKC 
     TEMPO 2707/2713 SCT030 
     FM271800 32008KT P6SM SKC 
     FM280300 VRB03KT P6SM BKN025 RMK NXT FCST BY 271200Z
       
TAF CYYT 270538Z 2706/2806 32018G28KT 4SM -SHSN BKN020 
     TEMPO 2706/2712 P6SM NSW BKN030 
     BECMG 2709/2711 31025G35KT 
     FM271200 31025G40KT 4SM -SHSN BKN020 
     TEMPO 2712/2806 P6SM NSW BKN030 
     BECMG 2716/2718 31030G45KT RMK NXT FCST BY 271200Z
       
TAF AMD CYYU 270607Z 2706/2714 VRB03KT 3SM -FZDZ BR OVC007 
     TEMPO 2706/2714 6SM BR OVC015 RMK NXT FCST BY 270800Z
       
TAF CYYY 270138Z 2702/2714 VRB03KT P6SM SCT160 
     BECMG 2703/2705 09008KT 
     FM270600 09008KT P6SM BKN120 
     FM271000 09010KT P6SM -SN BKN080 RMK NXT FCST BY 270800Z
       
TAF CYYZ 270538Z 2706/2812 09006KT P6SM SCT008 OVC050 
     TEMPO 2706/2708 3SM -SHRA BR BKN008 OVC020 
     FM270800 15006KT 2SM -SHRA BR BKN005 OVC010 
     TEMPO 2708/2712 6SM BR SCT005 OVC012 
     PROB40 2708/2711 1SM -SHRA BR OVC003 
     FM271200 21008KT P6SM OVC012 
     TEMPO 2712/2714 OVC008 
     FM271500 24010KT P6SM OVC015 
     FM271700 25012KT P6SM BKN025 
     TEMPO 2717/2720 OVC020 
     BECMG 2722/2724 26008KT 
     FM280300 27006KT P6SM BKN030 
     FM280900 35008KT P6SM BKN005 OVC030 RMK NXT FCST BY 270900Z
       
TAF CYZF 270538Z 2706/2806 31008KT P6SM -SHSN SCT006 OVC020 
     TEMPO 2706/2708 BKN006 OVC020 
     FM270800 33008KT P6SM OVC030 
     TEMPO 2708/2714 5SM -SN OVC020 
     FM271400 34007KT P6SM SCT030 
     TEMPO 2714/2717 P6SM -SN BKN030 
     BECMG 2800/2802 VRB03KT RMK NXT FCST BY 271200Z
       
TAF CYZH 270038Z 2701/2713 VRB03KT P6SM SCT100 
     TEMPO 2701/2704 BKN100 
     BECMG 2701/2703 12008KT 
     FM270800 12010KT P6SM BKN080 
     FM271100 12010KT P6SM SCT006 BKN080 
     PROB30 2711/2713 1SM BR BKN006 RMK FCST BASED ON AUTO OBS. NXT FCST BY 270700Z
       
TAF CYZP 270038Z 2701/2713 11025G35KT 2SM -RA BR BKN006 OVC012 
     TEMPO 2701/2702 6SM BR SCT006 OVC012 
     FM270200 13015G25KT P6SM SCT008 OVC025 
     TEMPO 2702/2713 3SM -SHRA BR BKN008 OVC015 RMK FCST BASED ON AUTO OBS. NXT FCST BY 270700Z
       
TAF CYZS 270638Z 2707/2719 VRB03KT P6SM IC FEW012 BKN050 
     TEMPO 2707/2709 P6SM NSW SCT050 
     BECMG 2707/2709 02007KT 
     FM270900 02007KT P6SM FEW050 
     FM271300 01010KT P6SM SKC RMK NXT FCST BY 271300Z
       
TAF AMD CYZT 270413Z 2704/2713 12010G20KT P6SM -RA SCT020 OVC050 
     TEMPO 2704/2713 6SM -SHRA BR BKN020 OVC050 
     BECMG 2708/2710 12005KT RMK NXT FCST BY 270700Z
       
TAF CYZV 270540Z 2706/2806 36005KT P6SM BKN200 
     FM271200 02005KT P6SM BKN120 
     BECMG 2714/2716 12006KT 
     FM272200 09008KT P6SM -SHSN OVC080 
     FM280500 08012G22KT 2SM -SN BKN015 OVC040 RMK NXT FCST BY 271200Z
       
TAF CYZX 270530Z 2706/2806 VRB03KT P6SM SCT150 BKN250 
     FM271000 VRB03KT P6SM FEW060 OVC120 
     BECMG 2712/2714 10008KT OVC060 
     FM272100 10010KT 6SM -SN SCT015 OVC040 
     TEMPO 2721/2806 4SM -SN OVC015 
     PROB40 2804/2806 2SM -FZRA BR OVC012 RMK NXT FCST BY 271200Z
       
TAF CYZY 270638Z 2707/2709 VRB03KT P6SM OVC030 
     TEMPO 2707/2709 5SM -SHRASN OVC020 RMK FCST BASED ON AUTO OBS. NXT FCST WILL BE ISSUED AT 271445Z
       
TAF CYEK 270538Z 2706/2718 01015KT P6SM SKC RMK FCST BASED ON AUTO OBS. NXT FCST BY 271200Z
       
TAF CYBG 270530Z 2706/2806 10015KT P6SM SCT080 OVC120 
     FM271000 10018KT 6SM -SN BKN040 OVC060 
     BECMG 2711/2713 2SM -SN BLSN OVC020 
     FM271300 10018KT 2SM -SN BLSN OVC020 
     TEMPO 2713/2715 3/4SM -SN BLSN VV006 
     FM271500 10020KT 1SM -SN BLSN SCT008 OVC015 
     TEMPO 2715/2721 1/2SM SN BLSN VV004 
     FM272100 10018KT 2SM -SN BLSN OVC012 
     FM280200 10015KT 5SM -SN OVC020 RMK NXT FCST BY 271200Z
       
TAF CYBC 270138Z 2702/2714 25008KT P6SM SCT160 
     BECMG 2704/2706 07012KT 
     FM270600 07012KT P6SM BKN120 
     FM271100 09015KT P6SM -SN SCT020 BKN070 
     FM271300 09015KT 11/2SM -SN SCT008 BKN020 RMK FCST BASED ON AUTO OBS. NXT FCST BY 270800Z
       
TAF CYBK 270538Z 2706/2718 34005KT P6SM FEW240 
     FM271500 VRB03KT P6SM FEW120 SCT240 
     BECMG 2716/2718 14007KT RMK NXT FCST BY 271200Z
       
TAF CYBR 270539Z 2706/2718 06005KT P6SM BKN080 
     TEMPO 2706/2708 P6SM -SHRA 
     FM270800 06005KT P6SM BKN080 
     TEMPO 2708/2714 2SM BR VV006 
     PROB30 2710/2714 1/2SM FZFG VV002 
     FM271400 05012KT 2SM BR VV006 
     TEMPO 2714/2718 P6SM NSW OVC010 RMK NXT FCST BY 271200Z
       
TAF CYDB 270538Z 2706/2718 VRB03KT P6SM BKN170 
     FM271600 VRB03KT P6SM BKN060 
     TEMPO 2716/2718 P6SM -SN BKN040 RMK FCST BASED ON AUTO OBS. NXT FCST BY 271200Z
       
TAF CYYC 270541Z 2706/2806 VRB03KT P6SM FEW120 BKN200 
     FM271400 VRB03KT P6SM FEW060 
     BECMG 2716/2718 32008KT 
     FM272200 34008KT P6SM -SHRA BKN060 
     FM280400 VRB03KT P6SM SKC RMK NXT FCST BY 270900Z
       
TAF CYCB 270638Z 2707/2719 VRB03KT 6SM -SN FEW004 BKN040 OVC080 
     TEMPO 2707/2709 3SM -SN SCT004 BKN020 OVC040 
     FM270900 06012KT 1SM -SN SCT004 OVC020 
     TEMPO 2709/2715 3SM -SN OVC040 
     FM271500 03012KT 3SM -SN BKN040 OVC080 
     TEMPO 2715/2719 6SM -SN SCT040 BKN080 RMK NXT FCST BY 271300Z
       
TAF CYTE 270638Z 2707/2719 VRB03KT 3SM -SN BKN015 
     TEMPO 2707/2719 1SM -SN VV005 RMK FCST BASED ON AUTO OBS. NXT FCST BY 271300Z
       
TAF CYYG 270540Z 2706/2718 VRB03KT P6SM FEW230 
     FM271100 VRB03KT P6SM BKN120 
     BECMG 2713/2715 20006KT 
     FM271600 20006KT P6SM SCT020 BKN090 RMK NXT FCST BY 271200Z
       
TAF CYYQ 270539Z 2706/2806 36012KT P6SM SCT020 BKN040 
     TEMPO 2706/2712 5SM -SN BKN020 OVC040 
     BECMG 2708/2710 36015G25KT 
     FM271200 36015G25KT P6SM BKN020 BKN220 
     TEMPO 2712/2724 SCT020 SCT220 
     FM280000 01012KT P6SM SCT020 
     BECMG 2804/2806 VRB03KT RMK NXT FCST BY 271200Z
       
TAF CZUM 270139Z 2702/2714 30012KT P6SM SKC 
     BECMG 2710/2712 31006KT RMK FCST BASED ON AUTO OBS. NXT FCST BY 270800Z
       
TAF CYCY 270638Z 2707/2719 27005KT P6SM SKC RMK FCST BASED ON AUTO OBS. NXT FCST BY 271300Z
       
TAF CYOD 270530Z 2706/2806 12005KT P6SM SKC 
     FM270800 09005KT P6SM SCT005 BKN010 
     TEMPO 2708/2711 FEW005 SCT010 
     PROB30 2709/2711 1SM BR BKN005 OVC008 
     FM271100 10005KT 1SM BR OVC005 
     TEMPO 2711/2714 3SM BR OVC010 
     PROB30 2711/2713 1/2SM FZFG VV002 
     FM271400 11008KT P6SM OVC010 
     TEMPO 2714/2718 4SM BR OVC008 
     FM271800 12010KT P6SM BKN010 OVC100 
     TEMPO 2721/2803 P6SM -SHRA OVC010 
     FM280300 13005KT 3SM -RASN BR OVC008 RMK NXT FCST BY 271200Z
       
TAF CYQQ 270539Z 2706/2806 14012G22KT P6SM FEW015 BKN030 
     TEMPO 2706/2724 P6SM -SHRA BKN015 OVC030 
     FM280000 13012G22KT P6SM SCT030 BKN100 
     TEMPO 2800/2806 P6SM -RA BKN030 OVC100 RMK NXT FCST BY 271200Z
       
TAF CYZS 270638Z 2707/2719 VRB03KT P6SM IC FEW012 BKN050 
     TEMPO 2707/2709 P6SM NSW SCT050 
     BECMG 2707/2709 02007KT 
     FM270900 02007KT P6SM FEW050 
     FM271300 01010KT P6SM SKC RMK NXT FCST BY 271300Z
       
TAF AMD CYXC 270555Z 2705/2713 VRB03KT P6SM SCT015 BKN040 OVC060 
     TEMPO 2705/2713 3SM -SHRASN BR BKN015 OVC040 RMK NXT FCST BY 270700Z
       
TAF CYDN 270539Z 2706/2718 02008KT P6SM SCT012 BKN080 
     TEMPO 2706/2708 6SM -SHRA BR BKN012 OVC080 
     FM270800 02008KT P6SM BKN012 
     TEMPO 2708/2718 2SM BR OVC006 
     PROB30 2708/2714 1/2SM FZFG VV002 RMK FCST BASED ON AUTO OBS. NXT FCST BY 271200Z
       
TAF CYDF 270139Z 2702/2714 25006KT P6SM FEW025 BKN050 
     TEMPO 2702/2706 5SM -SHSN BKN020 
     FM270600 27008KT WS005/31025KT P6SM SCT025 
     BECMG 2711/2713 27012G22KT RMK NXT FCST BY 270800Z
       
TAF CYHD 270138Z 2702/2714 VRB03KT P6SM SCT100 
     PROB30 2709/2714 1/2SM FG FZFG RMK FCST BASED ON AUTO OBS. NXT FCST BY 270800Z
       
TAF CYEG 270541Z 2706/2806 12010KT P6SM SCT080 BKN200 
     PROB30 2709/2718 1SM BR BKN004 
     FM271800 12010KT P6SM SCT008 BKN060 OVC140 
     PROB30 2718/2722 BKN008 
     FM272200 12010KT P6SM SCT012 
     TEMPO 2722/2806 BKN012 RMK NXT FCST BY 270900Z
       
TAF CZVL 270541Z 2706/2718 12010KT P6SM SCT080 BKN200 
     PROB30 2709/2718 1SM BR BKN004 RMK FCST BASED ON AUTO OBS. NXT FCST BY 271200Z
       
TAF CYMM 270038Z 2701/2713 VRB03KT P6SM FEW020 SCT250 
     FM270400 10005KT P6SM SKC 
     PROB40 2704/2708 1SM BR 
     FM270800 VRB03KT 1SM BR OVC006 
     PROB40 2708/2713 1/2SM FZFG VV002 RMK FCST BASED ON AUTO OBS. NXT FCST BY 270700Z
       
TAF CYYE 270638Z 2707/2719 VRB03KT P6SM SCT080 
     TEMPO 2707/2714 BKN080 
     PROB30 2710/2714 1SM BR 
     FM271400 VRB03KT P6SM BKN080 
     TEMPO 2714/2717 3SM -SN SCT015 OVC040 
     FM271700 VRB03KT P6SM -SN OVC040 
     TEMPO 2717/2719 2SM -SN OVC015 RMK NXT FCST BY 271300Z
       
TAF CYFS 270538Z 2706/2718 33005KT P6SM FEW120 
     BECMG 2709/2711 VRB03KT RMK NXT FCST BY 271200Z
       
TAF CYSM 270541Z 2706/2718 VRB03KT P6SM OVC025 
     TEMPO 2706/2718 6SM -SN OVC015 
     PROB30 2706/2718 2SM -FZDZ BR RMK NXT FCST BY 271200Z
       
TAF CYXJ 270638Z 2707/2719 VRB03KT P6SM BKN100 
     TEMPO 2707/2710 P6SM -SN OVC070 
     BECMG 2707/2709 32005KT 
     FM271000 32007KT P6SM BKN060 
     TEMPO 2710/2719 3SM -SN OVC030 
     BECMG 2717/2719 10007KT RMK NXT FCST BY 271300Z
       
TAF CYFC 270540Z 2706/2718 VRB03KT P6SM SCT160 
     FM270900 VRB03KT P6SM BKN100 
     FM271100 VRB03KT P6SM -SN OVC060 
     FM271600 08010KT 2SM -SN BKN020 OVC040 RMK FCST BASED ON AUTO OBS. NXT FCST BY 271200Z
       
TAF AMD CYQX 270547Z 2706/2806 31015G25KT P6SM SCT025 
     TEMPO 2706/2712 BKN025 
     BECMG 2710/2712 31020G35KT 
     FM271200 31020G35KT P6SM BKN020 
     TEMPO 2712/2724 BKN030 
     BECMG 2713/2715 32025G40KT 
     FM280000 32018G28KT P6SM BKN020 
     TEMPO 2800/2806 BKN030 RMK NXT FCST BY 271200Z
       
TAF CYGP 270138Z 2702/2714 28008KT P6SM SKC 
     FM270600 VRB03KT P6SM SCT160 
     FM271200 29005KT P6SM BKN110 RMK NXT FCST BY 270800Z
       
TAF CYGQ 270138Z 2702/2714 VRB03KT P6SM SCT020 OVC040 
     TEMPO 2702/2714 BKN020 OVC040 
     PROB30 2704/2714 P6SM -FZRA RMK NXT FCST BY 270800Z
       
TAF CYHK 270538Z 2706/2718 26007KT P6SM FEW240 
     TEMPO 2706/2712 4SM IC HZ 
     BECMG 2709/2711 21010KT 
     FM271200 18010KT P6SM SCT080 BKN120 
     FM271500 16015G25KT 6SM -SN BKN030 OVC080 
     TEMPO 2715/2718 2SM -SN BLSN BKN015 OVC030 RMK FCST BASED ON AUTO OBS. NXT FCST BY 271200Z
       
TAF CYYR 270530Z 2706/2806 25008KT P6SM SKC 
     TEMPO 2707/2713 SCT030 
     FM271800 32008KT P6SM SKC 
     FM280300 VRB03KT P6SM BKN025 RMK NXT FCST BY 271200Z
       
TAF CYQU 270038Z 2701/2713 03008KT P6SM SCT100 BKN260 
     FM270500 06012KT P6SM BKN060 OVC140 
     BECMG 2708/2710 VRB03KT RMK NXT FCST BY 270700Z
       
TAF CYZX 270530Z 2706/2806 VRB03KT P6SM SCT150 BKN250 
     FM271000 VRB03KT P6SM FEW060 OVC120 
     BECMG 2712/2714 10008KT OVC060 
     FM272100 10010KT 6SM -SN SCT015 OVC040 
     TEMPO 2721/2806 4SM -SN OVC015 
     PROB40 2804/2806 2SM -FZRA BR OVC012 RMK NXT FCST BY 271200Z
       
TAF CYHZ 270540Z 2706/2806 26008KT P6SM FEW240 
     FM271100 06006KT P6SM BKN120 
     FM271800 16010KT P6SM -SHSN FEW020 OVC070 
     FM272100 15010KT 2SM -SN SCT020 OVC040 
     FM280000 12010KT 11/2SM -SN BKN020 OVC040 
     PROB30 2800/2804 11/2SM -PLSN OVC020 
     FM280400 12012G22KT 3/4SM -SN VV010 
     PROB30 2804/2806 1/2SM SNPL VV008 RMK NXT FCST BY 270900Z
       
TAF CYUX 261839Z 2619/2707 17012KT P6SM FEW012 
     TEMPO 2619/2707 BKN012 RMK NXT FCST BY 270100Z
       
TAF AMD CYHM 270612Z 2706/2806 10005KT 1SM -RA BR BKN002 OVC005 
     TEMPO 2706/2709 P6SM NSW FEW006 OVC015 
     FM270900 16006KT 1SM BR OVC003 
     TEMPO 2709/2711 5SM BR OVC006 
     PROB30 2709/2711 1/4SM -DZ FG VV001 
     FM271100 21008KT 5SM BR OVC003 
     TEMPO 2711/2714 P6SM NSW OVC010 
     FM271400 23012KT P6SM OVC012 
     FM271700 23012KT P6SM OVC020 
     FM272300 24008KT P6SM BKN015 OVC030 RMK NXT FCST BY 271200Z
       
TAF CYGV 270138Z 2702/2714 29008KT P6SM SCT240 
     BECMG 2710/2712 33006KT RMK FCST BASED ON AUTO OBS. NXT FCST BY 270800Z
       
TAF CYHY 270538Z 2706/2718 30007KT P6SM OVC030 
     TEMPO 2706/2712 6SM -SN OVC020 
     BECMG 2707/2709 VRB03KT 
     FM271200 VRB03KT P6SM OVC040 
     TEMPO 2712/2718 P6SM -SN OVC025 RMK NXT FCST BY 271200Z
       
TAF CYOJ 270038Z 2701/2713 VRB03KT P6SM OVC025 
     TEMPO 2701/2705 OVC015 
     FM270500 34005KT P6SM FEW020 SCT060 
     FM271000 35005KT P6SM FEW050 
     PROB30 2710/2713 1SM BR RMK NXT FCST BY 270700Z
       
TAF CYEV 270638Z 2707/2719 05005KT P6SM FEW250 RMK NXT FCST BY 271300Z
       
TAF CYFB 270538Z 2706/2806 31015KT P6SM SKC 
     BECMG 2707/2709 31008KT 
     BECMG 2710/2712 VRB03KT 
     FM272100 VRB03KT P6SM SCT040 BKN080 
     TEMPO 2721/2806 5SM -SN BKN040 OVC080 RMK NXT FCST BY 271200Z
       
TAF CYKA 270038Z 2701/2713 08010KT P6SM SCT050 BKN080 OVC120 
     TEMPO 2701/2703 P6SM -SHRA BKN050 OVC080 
     FM270300 09008KT P6SM FEW050 BKN100 RMK NXT FCST BY 270700Z
       
TAF AMD CYYU 270607Z 2706/2714 VRB03KT 3SM -FZDZ BR OVC007 
     TEMPO 2706/2714 6SM BR OVC015 RMK NXT FCST BY 270800Z
       
TAF CYLW 270038Z 2701/2713 20006KT P6SM FEW025 BKN060 
     TEMPO 2701/2713 P6SM -SHRA BKN025 OVC060 RMK FCST BASED ON AUTO OBS. NXT FCST BY 270700Z
       
TAF CYQK 270138Z 2702/2714 VRB03KT P6SM SCT130 
     PROB40 2708/2714 1/2SM FG FZFG OVC002 RMK NXT FCST BY 270800Z
       
TAF CYCO 270638Z 2707/2719 27012KT 6SM IC FEW040 SCT080 
     TEMPO 2707/2708 P6SM NSW FEW080 
     FM270800 27007KT P6SM IC FEW080 RMK NXT FCST BY 271300Z
       
TAF CYVP 270538Z 2706/2718 23005KT P6SM FEW220 
     BECMG 2706/2708 18005KT 
     FM271700 13007KT P6SM BKN220 RMK NXT FCST BY 271200Z
       
TAF CYGL 270538Z 2706/2806 12012KT P6SM OVC090 
     FM270800 13015KT P6SM SCT020 OVC060 
     TEMPO 2708/2714 4SM -SN OVC015 
     FM271400 14012G22KT 2SM -SN OVC015 
     TEMPO 2714/2724 6SM -SN 
     BECMG 2720/2722 15007KT RMK NXT FCST BY 271200Z
       
TAF CYVC 270638Z 2707/2719 VRB03KT P6SM FEW050 
     PROB30 2709/2712 1SM BR RMK NXT FCST BY 271300Z
       
TAF CYQL 270541Z 2706/2718 20008KT P6SM SCT060 BKN120 OVC200 
     FM271400 24012KT P6SM SCT120 
     BECMG 2714/2716 26020KT RMK FCST BASED ON AUTO OBS. NXT FCST BY 271200Z
       
TAF CYLL 270541Z 2706/2718 12010KT P6SM FEW006 
     TEMPO 2706/2709 4SM BR SCT006 
     PROB40 2706/2709 1SM BR 
     FM270900 12010KT 11/2SM BR OVC006 
     PROB40 2709/2717 1/2SM FZFG VV002 
     FM271700 12010KT P6SM SCT008 
     TEMPO 2717/2718 2SM BR BKN008 RMK FCST BASED ON AUTO OBS. NXT FCST BY 271200Z
       
TAF CYXU 270538Z 2706/2806 16006KT 1SM BR OVC002 
     TEMPO 2706/2715 3SM -SHRA BR BKN006 OVC015 
     BECMG 2711/2713 23010KT 
     FM271500 24010KT 3SM BR OVC005 
     TEMPO 2715/2719 P6SM NSW OVC010 
     FM271900 25012KT P6SM OVC012 
     BECMG 2722/2724 26006KT 
     FM280300 VRB03KT P6SM BKN020 RMK NXT FCST BY 271200Z
       
TAF AMD CYBX 270520Z 2705/2714 31015G25KT P6SM FEW020 RMK NXT FCST BY 270800Z
       
TAF CYYL 270638Z 2707/2719 VRB03KT P6SM SKC 
     PROB30 2707/2719 2SM BR RMK FCST BASED ON AUTO OBS. NXT FCST BY 271300Z
       
TAF CYZY 270638Z 2707/2709 VRB03KT P6SM OVC030 
     TEMPO 2707/2709 5SM -SHRASN OVC020 RMK FCST BASED ON AUTO OBS. NXT FCST WILL BE ISSUED AT 271445Z
       
TAF CYMA 270538Z 2706/2718 36008KT P6SM FEW050 
     FM271200 02007KT P6SM SCT050 
     TEMPO 2712/2718 P6SM -SN BKN050 RMK NXT FCST BY 271200Z
       
TAF CYXH 270541Z 2706/2718 VRB03KT P6SM FEW080 BKN200 
     FM270900 18006KT P6SM BKN080 OVC200 RMK FCST BASED ON AUTO OBS. NXT FCST BY 271200Z
       
TAF CYQM 270540Z 2706/2806 28005KT P6SM SCT160 
     FM270800 03005KT P6SM BKN120 
     FM271500 10008KT 6SM -SHSN OVC080 
     FM272000 10008KT 2SM -SN SCT020 OVC040 
     FM280000 08010KT 1SM -SN OVC008 RMK NXT FCST BY 271200Z
       
TAF CYYY 270138Z 2702/2714 VRB03KT P6SM SCT160 
     BECMG 2703/2705 09008KT 
     FM270600 09008KT P6SM BKN120 
     FM271000 09010KT P6SM -SN BKN080 RMK NXT FCST BY 270800Z
       
TAF CYUL 270541Z 2706/2806 08009KT P6SM OVC025 
     TEMPO 2706/2709 5SM -RA -DZ BR OVC015 
     PROB30 2706/2709 2SM BR OVC006 
     FM270900 13015KT 3SM -RA BR BKN006 OVC012 
     FM272300 06002KT 2SM -SHRA BR OVC006 
     PROB30 2723/2806 1SM BR OVC003 RMK NXT FCST BY 270900Z
       
TAF CYMX 270541Z 2706/2806 06005KT P6SM OVC025 
     TEMPO 2706/2712 2SM -FZDZ -FZRA BR OVC005 
     FM271200 12007KT 1SM -RA BR OVC003 
     FM272200 05006KT 11/2SM -SHRA BR OVC003 
     PROB30 2722/2806 1/2SM FG VV002 RMK NXT FCST BY 271200Z
       
TAF CYHU 270541Z 2706/2806 10007KT P6SM OVC030 
     TEMPO 2706/2709 5SM -RA BR OVC015 
     PROB30 2706/2709 2SM BR OVC006 
     FM270900 17015KT 3SM -RA BR BKN006 OVC012 
     FM271200 17015KT 3SM -RA BR BKN006 OVC012 
     FM272300 16006KT 21/2SM -SHRA BR OVC009 
     PROB30 2723/2806 1/2SM FG VV002 RMK FCST BASED ON AUTO OBS. NXT FCST BY 271200Z
       
TAF CYMJ 261915Z 2619/2707 25012G22KT P6SM FEW080 BKN260 
     BECMG 2622/2624 29008KT 
     BECMG 2701/2703 VRB03KT RMK NXT FCST BY 270000Z
       
TAF CYNA 270138Z 2702/2714 32008KT P6SM SKC RMK FCST BASED ON AUTO OBS. NXT FCST BY 270800Z
       
TAF CYVQ 270538Z 2706/2718 VRB03KT P6SM FEW260 RMK NXT FCST BY 271200Z
       
TAF CYQW 270539Z 2706/2718 11012KT P6SM OVC025 
     TEMPO 2706/2708 3SM BR OVC012 
     FM270800 10012KT 1SM BR OVC003 
     TEMPO 2708/2714 3SM BR OVC012 
     FM271400 11015KT 3SM BR OVC006 
     TEMPO 2714/2718 P6SM NSW OVC012 RMK FCST BASED ON AUTO OBS. NXT FCST BY 271200Z
       
TAF AMD CYYB 270434Z 2704/2714 10012KT 6SM BR OVC006 
     TEMPO 2704/2707 2SM -FZDZ -SN BR OVC003 
     FM270700 09007KT 1/2SM -DZ FG VV002 
     TEMPO 2707/2714 2SM -RA BR OVC004 
     PROB40 2707/2714 1/4SM FG VV001 RMK NXT FCST BY 270800Z
       
TAF AMD CYOW 270609Z 2706/2806 08008G18KT 11/2SM -FZDZ -FZRA BR OVC003 
     TEMPO 2706/2709 6SM BR OVC025 
     FM270900 08010KT 1SM -RA BR OVC005 
     PROB30 2709/2720 OVC003 
     FM272000 08007KT 2SM -SHRA BR OVC005 
     PROB30 2720/2724 1SM BR OVC003 
     FM280000 09003KT 11/2SM -SHRA BR OVC003 
     PROB30 2800/2806 1/2SM FG VV002 RMK NXT FCST BY 270900Z
       
TAF CYPE 270038Z 2701/2713 VRB03KT P6SM FEW100 SCT210 
     FM270800 03005KT P6SM BKN050 OVC100 
     PROB30 2708/2713 P6SM -FZRA RMK NXT FCST BY 270700Z
       
TAF CYYF 270038Z 2701/2713 18012KT P6SM FEW030 BKN060 
     TEMPO 2701/2706 P6SM -SHRA BKN030 OVC060 
     FM270600 16006KT P6SM BKN040 OVC080 
     TEMPO 2706/2713 P6SM -SHRA SCT020 OVC040 RMK NXT FCST BY 270700Z
       
TAF CYWA 270530Z 2706/2718 13008KT 2SM -FZRA -FZDZ BR OVC006 
     TEMPO 2706/2712 6SM BR OVC010 
     FM271200 13005KT 1SM -RA BR OVC004 
     TEMPO 2712/2718 4SM -DZ BR OVC008 
     PROB40 2712/2716 3/4SM -RA BR OVC003 RMK FCST BASED ON AUTO OBS. NXT FCST BY 271200Z
       
TAF CYIO 270638Z 2707/2719 17005KT P6SM FEW030 RMK FCST BASED ON AUTO OBS. NXT FCST BY 271300Z
       
TAF AMD CYZT 270413Z 2704/2713 12010G20KT P6SM -RA SCT020 OVC050 
     TEMPO 2704/2713 6SM -SHRA BR BKN020 OVC050 
     BECMG 2708/2710 12005KT RMK NXT FCST BY 270700Z
       
TAF CYPA 270638Z 2707/2719 06006KT P6SM SCT250 
     PROB30 2708/2712 1SM BR BKN006 
     BECMG 2712/2714 08012KT RMK NXT FCST BY 271300Z
       
TAF CYXS 270038Z 2701/2713 19012KT P6SM BKN050 
     TEMPO 2701/2713 P6SM -SHRA BKN030 
     BECMG 2705/2707 18007KT RMK FCST BASED ON AUTO OBS. NXT FCST BY 270700Z
       
TAF CYPR 270038Z 2701/2713 08010KT P6SM BKN040 
     TEMPO 2701/2713 P6SM -SHRA RMK FCST BASED ON AUTO OBS. NXT FCST BY 270700Z
       
TAF CYPX 270538Z 2706/2718 10015KT P6SM BKN150 
     BECMG 2712/2714 08015G25KT 
     FM271400 08015G25KT P6SM BKN150 
     TEMPO 2714/2718 5SM BLSN RMK FCST BASED ON AUTO OBS. NXT FCST BY 271200Z
       
TAF CYVM 270638Z 2707/2719 20012KT P6SM SKC 
     BECMG 2708/2710 20007KT RMK FCST BASED ON AUTO OBS. NXT FCST BY 271300Z
       
TAF AMD CYQB 270605Z 2706/2806 07009KT P6SM -SN OVC025 
     TEMPO 2706/2710 11/2SM -SNPL VV012 
     PROB30 2707/2710 5SM -FZRA BR 
     FM271000 07015KT 3SM -SN OVC012 
     PROB30 2710/2715 2SM -FZDZ BR OVC006 
     FM271500 08012KT 11/2SM -SN OVC006 
     FM272300 07010KT WS015/12020KT 1SM -SNPL BKN010 OVC020 
     FM280300 07010KT WS015/12020KT P6SM -PL OVC015 
     PROB30 2803/2806 4SM -FZRA BR RMK NXT FCST BY 271200Z
       
TAF CYRT 270538Z 2706/2718 36010KT P6SM SKC 
     BECMG 2710/2712 35007KT RMK NXT FCST BY 271200Z
       
TAF CYQF 270541Z 2706/2718 15006KT P6SM SCT120 BKN200 
     FM271400 VRB03KT P6SM FEW120 RMK NXT FCST BY 271200Z
       
TAF AMD CYQR 270559Z 2706/2806 35006KT 2SM BR VV015 
     TEMPO 2706/2715 1/2SM FZFG VV005 
     FM271500 08008KT P6SM SCT020 
     FM272000 10015KT P6SM BKN100 OVC200 
     TEMPO 2720/2806 P6SM -SHRA RMK NXT FCST BY 271200Z
       
TAF CYRB 270538Z 2706/2806 12010KT P6SM IC SKC 
     FM271200 12012KT P6SM SCT020 
     TEMPO 2712/2724 5SM -SN BKN020 
     FM280000 12012KT P6SM -SN SCT020 BKN080 
     TEMPO 2800/2806 2SM -SN SCT006 BKN020 OVC080 RMK NXT FCST BY 271200Z
       
TAF CYUY 270538Z 2706/2718 16010KT 4SM -FZRA BR OVC005 
     TEMPO 2706/2710 6SM -FZRA BR OVC010 
     FM271000 15010KT 1SM -FZRA BR OVC005 
     TEMPO 2710/2712 4SM -RA BR OVC010 
     FM271200 15005KT 3/4SM -DZ BR VV002 
     TEMPO 2712/2718 2SM -RA BR OVC006 RMK NXT FCST BY 271200Z
       
TAF CYSJ 270540Z 2706/2718 VRB03KT P6SM BKN170 
     FM271000 VRB03KT P6SM -SHSN OVC080 
     TEMPO 2710/2712 3SM -SN OVC060 
     FM271200 08010KT 3SM -SN OVC060 
     FM271500 11012KT 11/2SM -SN OVC015 RMK NXT FCST BY 271200Z
       
TAF CYZP 270038Z 2701/2713 11025G35KT 2SM -RA BR BKN006 OVC012 
     TEMPO 2701/2702 6SM BR SCT006 OVC012 
     FM270200 13015G25KT P6SM SCT008 OVC025 
     TEMPO 2702/2713 3SM -SHRA BR BKN008 OVC015 RMK FCST BASED ON AUTO OBS. NXT FCST BY 270700Z
       
TAF CYXE 270539Z 2706/2806 08008KT 2SM BR OVC004 
     TEMPO 2706/2715 6SM BR OVC008 
     FM271500 09012KT P6SM OVC008 
     TEMPO 2715/2720 BKN012 
     FM272000 09012KT P6SM BKN012 OVC100 RMK NXT FCST BY 271200Z
       
TAF CYAM 270138Z 2702/2714 09007KT 3SM -RA BR OVC007 
     TEMPO 2702/2704 3/4SM -DZ BR OVC004 
     FM270400 VRB02KT 1/2SM -DZ FG VV002 
     TEMPO 2704/2714 2SM -RA BR OVC007 
     PROB40 2704/2714 1/4SM -DZ FG VV001 RMK NXT FCST BY 270800Z
       
TAF CYKL 270139Z 2702/2714 34005KT P6SM SKC 
     BECMG 2704/2706 VRB03KT RMK FCST BASED ON AUTO OBS. NXT FCST BY 270800Z
       
TAF CYZV 270540Z 2706/2806 36005KT P6SM BKN200 
     FM271200 02005KT P6SM BKN120 
     BECMG 2714/2716 12006KT 
     FM272200 09008KT P6SM -SHSN OVC080 
     FM280500 08012G22KT 2SM -SN BKN015 OVC040 RMK NXT FCST BY 271200Z
       
TAF CYXL 270138Z 2702/2714 VRB03KT P6SM SCT110 
     PROB30 2709/2714 1/2SM FZFG RMK NXT FCST BY 270800Z
       
TAF CYZH 270038Z 2701/2713 VRB03KT P6SM SCT100 
     TEMPO 2701/2704 BKN100 
     BECMG 2701/2703 12008KT 
     FM270800 12010KT P6SM BKN080 
     FM271100 12010KT P6SM SCT006 BKN080 
     PROB30 2711/2713 1SM BR BKN006 RMK FCST BASED ON AUTO OBS. NXT FCST BY 270700Z
       
TAF AMD CYAY 270144Z 2702/2714 31015G25KT P6SM FEW025 
     TEMPO 2708/2714 BKN025 RMK FCST BASED ON AUTO OBS. NXT FCST BY 270800Z
       
TAF CYYT 270538Z 2706/2806 32018G28KT 4SM -SHSN BKN020 
     TEMPO 2706/2712 P6SM NSW BKN030 
     BECMG 2709/2711 31025G35KT 
     FM271200 31025G40KT 4SM -SHSN BKN020 
     TEMPO 2712/2806 P6SM NSW BKN030 
     BECMG 2716/2718 31030G45KT RMK NXT FCST BY 271200Z
       
TAF CYJT 270538Z 2706/2806 32015G25KT P6SM -SHSN BKN030 
     TEMPO 2706/2709 3SM -SHSN BKN020 
     FM270900 32012G22KT P6SM BKN020 
     TEMPO 2709/2718 SCT020 
     BECMG 2713/2715 31018G28KT 
     FM271800 30015G25KT P6SM SCT020 
     TEMPO 2718/2806 BKN020 
     BECMG 2722/2724 33010KT RMK NXT FCST BY 271200Z
       
TAF AMD CYSB 270613Z 2706/2714 08007KT 1/2SM FZFG VV001 
     TEMPO 2706/2710 1SM -FZDZ BR OVC003 
     FM271000 12005KT 1/2SM FG VV002 
     TEMPO 2710/2714 2SM -RA BR OVC004 
     PROB40 2710/2714 1/4SM FG VV001 RMK NXT FCST BY 270800Z
       
TAF CYYN 270539Z 2706/2718 10008KT P6SM FEW020 SCT100 
     FM271400 12012KT P6SM BKN100 
     TEMPO 2714/2718 P6SM -SHRA RMK FCST BASED ON AUTO OBS. NXT FCST BY 271200Z
       
TAF CYQY 270540Z 2706/2718 29010KT P6SM SCT030 
     FM270900 33010KT P6SM FEW030 SCT160 
     FM271400 34012KT P6SM FEW020 BKN120 
     BECMG 2716/2718 01010KT RMK NXT FCST BY 271200Z
       
TAF CYYH 270538Z 2706/2718 16007KT P6SM IC FEW100 
     FM271500 16010KT P6SM SCT080 BKN120 RMK NXT FCST BY 271200Z
       
TAF CYXT 270638Z 2707/2719 VRB03KT P6SM BKN070 
     TEMPO 2707/2711 18007KT P6SM -SHRA OVC050 
     FM271100 VRB03KT P6SM SCT020 BKN050 
     TEMPO 2711/2719 18007KT 3SM -RASN BR BKN020 OVC050 
     BECMG 2713/2715 01007KT RMK NXT FCST BY 271300Z
       
TAF CYQD 270638Z 2707/2719 VRB03KT P6SM SKC 
     FM271200 VRB03KT P6SM FEW015 RMK NXT FCST BY 271300Z
       
TAF CYTH 270638Z 2707/2719 VRB03KT P6SM OVC025 
     TEMPO 2707/2717 P6SM -SN OVC020 
     FM271700 01006KT P6SM SCT030 RMK NXT FCST BY 271300Z
       
TAF CYQT 270138Z 2702/2714 09005KT 3SM -DZ BR BKN005 OVC025 
     TEMPO 2702/2706 6SM BR SCT005 OVC025 
     PROB30 2702/2706 2SM -FZDZ BR 
     FM270600 28004KT P6SM SCT004 BKN120 
     TEMPO 2706/2710 2SM BR BKN004 
     PROB40 2706/2710 1/2SM FZFG OVC002 
     FM271000 28004KT P6SM BKN130 RMK NXT FCST BY 270800Z
       
TAF AMD CYTS 270513Z 2705/2714 15007KT 6SM -FZRA BR OVC010 
     TEMPO 2705/2708 2SM -DZ BR OVC005 
     FM270800 VRB03KT 1SM -FZDZ BR OVC003 
     TEMPO 2708/2714 4SM -FZRA BR OVC006 RMK NXT FCST BY 270800Z
       
TAF CYKZ 270538Z 2706/2718 11006KT 2SM BR OVC002 
     TEMPO 2706/2708 3SM -SHRA BR BKN008 OVC020 
     FM270800 15006KT 2SM -SHRA BR BKN005 OVC010 
     TEMPO 2708/2712 6SM BR SCT005 OVC012 
     PROB40 2708/2711 1SM -SHRA BR OVC003 
     FM271200 21008KT P6SM OVC012 
     TEMPO 2712/2714 OVC008 
     FM271500 24010KT P6SM OVC015 RMK NXT FCST BY 271200Z
       
TAF AMD CYTZ 270540Z 2705/2802 07010KT P6SM FEW005 OVC025 
     TEMPO 2705/2708 4SM -SHRA BR BKN004 OVC020 
     FM270800 13008KT 2SM -SHRA BR BKN003 OVC010 
     TEMPO 2708/2712 6SM BR SCT005 OVC012 
     FM271200 18008KT P6SM OVC012 
     TEMPO 2712/2714 OVC008 
     FM271500 20010KT P6SM OVC015 
     FM271900 22012KT P6SM BKN020 
     BECMG 2722/2724 25008KT RMK FCST BASED ON AUTO OBS. NXT FCST BY 270800Z
       
TAF CYYZ 270538Z 2706/2812 09006KT P6SM SCT008 OVC050 
     TEMPO 2706/2708 3SM -SHRA BR BKN008 OVC020 
     FM270800 15006KT 2SM -SHRA BR BKN005 OVC010 
     TEMPO 2708/2712 6SM BR SCT005 OVC012 
     PROB40 2708/2711 1SM -SHRA BR OVC003 
     FM271200 21008KT P6SM OVC012 
     TEMPO 2712/2714 OVC008 
     FM271500 24010KT P6SM OVC015 
     FM271700 25012KT P6SM BKN025 
     TEMPO 2717/2720 OVC020 
     BECMG 2722/2724 26008KT 
     FM280300 27006KT P6SM BKN030 
     FM280900 35008KT P6SM BKN005 OVC030 RMK NXT FCST BY 270900Z
       
TAF AMD CYTR 270609Z 2706/2806 15010KT 2SM -RA BR OVC005 
     TEMPO 2706/2708 6SM -RA BR SCT008 OVC025 
     FM270800 15008KT 2SM -RA BR OVC005 
     TEMPO 2708/2714 6SM -RA BR OVC008 
     FM271400 17005KT 3SM -RA BR SCT006 OVC010 
     TEMPO 2714/2720 1SM -RA -DZ BR OVC004 
     BECMG 2717/2719 24010KT 
     FM272000 24012KT P6SM OVC015 
     TEMPO 2720/2724 5SM -DZ BR OVC010 
     FM280000 24008KT 2SM -DZ BR OVC006 RMK NXT FCST BY 271200Z
       
TAF AMD CYRQ 270326Z 2703/2714 06011KT P6SM -SN OVC050 
     TEMPO 2703/2708 5SM -FZRA -SNPL BR OVC020 
     FM270800 08008KT WS015/16020KT 3SM -SNPL OVC030 
     PROB40 2708/2712 1SM -SN -FZRA VV015 
     FM271200 08008KT WS015/16020KT 1SM -PL BR OVC015 
     PROB40 2712/2714 3/4SM -SN -FZRA VV008 RMK FCST BASED ON AUTO OBS. NXT FCST BY 270800Z
       
TAF CYVO 270538Z 2706/2718 14015KT 6SM -FZRA BR OVC012 
     TEMPO 2706/2712 3SM -SN OVC007 
     FM271200 15007KT 3/4SM -DZ BR OVC003 
     TEMPO 2712/2718 2SM -RA BR OVC006 RMK FCST BASED ON AUTO OBS. NXT FCST BY 271200Z
       
TAF CYVR 270538Z 2706/2812 07008KT P6SM SCT012 OVC025 
     TEMPO 2706/2720 4SM -SHRA BR FEW008 BKN012 OVC020 
     FM272000 11010KT P6SM -SHRA SCT012 BKN025 
     FM280200 13008KT P6SM SCT020 BKN060 BKN200 
     FM280900 12008KT P6SM -RA SCT015 BKN030 OVC050 RMK NXT FCST BY 270900Z
       
TAF CYYJ 270538Z 2706/2806 14008KT P6SM SCT012 BKN050 BKN140 
     TEMPO 2706/2802 5SM -SHRA BR FEW008 BKN012 OVC030 
     FM280200 23010G20KT P6SM FEW030 SCT050 BKN200 RMK NXT FCST BY 271200Z
       
TAF CYWK 270139Z 2702/2714 33008KT P6SM SKC 
     BECMG 2704/2706 VRB03KT RMK NXT FCST BY 270800Z
       
TAF AMD CYQH 270623Z 2706/2718 VRB03KT P6SM SCT050 
     TEMPO 2706/2714 BKN050 
     BECMG 2712/2714 11007KT 
     FM271400 11007KT P6SM BKN080 
     TEMPO 2714/2718 6SM -SN OVC040 RMK NXT FCST BY 271200Z
       
TAF CYXY 270538Z 2706/2718 28005KT P6SM FEW060 
     FM271000 VRB03KT P6SM SCT060 BKN100 
     TEMPO 2710/2718 P6SM -SN BKN060 OVC100 
     BECMG 2715/2717 17008KT RMK NXT FCST BY 271200Z
       
TAF CYWL 270038Z 2701/2713 12015G25KT P6SM SCT020 BKN060 OVC120 
     TEMPO 2701/2705 5SM -SN BKN020 
     FM270500 12010KT P6SM SCT060 BKN120 
     BECMG 2708/2710 12005KT RMK NXT FCST BY 270700Z
       
TAF CYQG 270538Z 2706/2806 21008KT P6SM SCT012 OVC060 
     TEMPO 2706/2714 4SM BR OVC006 
     FM271400 23012KT P6SM BKN015 OVC030 
     FM272100 21010KT P6SM BKN020 
     BECMG 2723/2801 VRB03KT RMK NXT FCST BY 271200Z
       
TAF CYWG 270539Z 2706/2806 VRB03KT P6SM FEW100 
     BECMG 2710/2712 BKN080 
     FM271200 03006KT P6SM SCT030 OVC080 
     TEMPO 2712/2715 P6SM -FZRA BKN030 OVC080 
     FM271500 01008KT P6SM SCT012 OVC030 
     TEMPO 2715/2720 6SM -SHRA BR SCT008 OVC012 
     FM272000 02010KT P6SM SCT008 OVC012 
     FM280000 02010KT P6SM BKN030 RMK NXT FCST BY 271200Z
       
TAF CYQI 270540Z 2706/2718 08005KT P6SM OVC120 
     FM271000 09006KT P6SM OVC060 
     TEMPO 2710/2712 P6SM -SHSN 
     FM271700 11015KT P6SM -SNPL OVC040 RMK NXT FCST BY 271200Z
       
TAF CYZF 270538Z 2706/2806 31008KT P6SM -SHSN SCT006 OVC020 
     TEMPO 2706/2708 BKN006 OVC020 
     FM270800 33008KT P6SM OVC030 
     TEMPO 2708/2714 5SM -SN OVC020 
     FM271400 34007KT P6SM SCT030 
     TEMPO 2714/2717 P6SM -SN BKN030 
     BECMG 2800/2802 VRB03KT RMK NXT FCST BY 271200Z